createdAt,value
2022-09-25T00:01:32.437Z,66.04
2022-09-25T00:03:59.495Z,66.08
2022-09-25T00:06:27.665Z,66.18
2022-09-25T00:08:54.783Z,66.50
2022-09-25T00:11:27.876Z,66.00
2022-09-25T00:13:55.851Z,65.61
2022-09-25T00:16:25.788Z,65.75
2022-09-25T00:18:52.371Z,65.73
2022-09-25T00:21:19.110Z,65.74
2022-09-25T00:23:46.449Z,65.67
2022-09-25T00:26:15.216Z,65.94
2022-09-25T00:28:43.356Z,66.06
2022-09-25T00:31:11.220Z,65.83
2022-09-25T00:33:37.872Z,65.80
2022-09-25T00:36:10.234Z,65.85
2022-09-25T00:38:38.319Z,65.78
2022-09-25T00:41:06.145Z,65.81
2022-09-25T00:43:41.075Z,66.00
2022-09-25T00:46:13.002Z,65.81
2022-09-25T00:48:51.755Z,65.77
2022-09-25T00:51:21.985Z,66.05
2022-09-25T00:53:49.268Z,66.11
2022-09-25T00:56:15.946Z,66.20
2022-09-25T00:58:42.516Z,66.12
2022-09-25T01:01:09.551Z,66.34
2022-09-25T01:03:36.798Z,66.33
2022-09-25T01:06:04.032Z,66.42
2022-09-25T01:08:31.993Z,66.45
2022-09-25T01:10:58.614Z,66.38
2022-09-25T01:13:26.268Z,66.49
2022-09-25T01:16:20.366Z,67.22
2022-09-25T01:18:55.379Z,67.05
2022-09-25T01:21:52.867Z,67.44
2022-09-25T01:24:41.261Z,67.44
2022-09-25T01:27:40.138Z,67.39
2022-09-25T01:30:11.158Z,66.96
2022-09-25T01:32:46.812Z,67.15
2022-09-25T01:35:34.879Z,67.12
2022-09-25T01:38:23.586Z,67.05
2022-09-25T01:41:03.535Z,66.46
2022-09-25T01:43:46.200Z,67.11
2022-09-25T01:46:16.647Z,66.59
2022-09-25T01:48:46.655Z,66.27
2022-09-25T01:51:19.273Z,66.32
2022-09-25T01:53:51.610Z,66.48
2022-09-25T01:56:28.063Z,66.50
2022-09-25T01:59:00.037Z,66.33
2022-09-25T02:01:31.754Z,66.33
2022-09-25T02:04:09.126Z,66.52
2022-09-25T02:06:38.198Z,66.22
2022-09-25T02:09:38.078Z,66.34
2022-09-25T02:12:20.734Z,66.41
2022-09-25T02:14:57.519Z,66.47
2022-09-25T02:17:33.511Z,66.20
2022-09-25T02:20:00.099Z,66.08
2022-09-25T02:22:31.922Z,66.54
2022-09-25T02:25:10.062Z,66.52
2022-09-25T02:27:36.569Z,66.33
2022-09-25T02:30:03.818Z,66.27
2022-09-25T02:32:32.153Z,66.35
2022-09-25T02:34:59.497Z,66.31
2022-09-25T02:37:26.546Z,66.47
2022-09-25T02:39:57.369Z,66.60
2022-09-25T02:42:43.758Z,67.24
2022-09-25T02:45:27.313Z,67.33
2022-09-25T02:48:10.017Z,67.56
2022-09-25T02:50:47.533Z,67.56
2022-09-25T02:53:27.919Z,67.61
2022-09-25T02:56:02.998Z,67.43
2022-09-25T02:58:37.109Z,67.55
2022-09-25T03:01:08.249Z,67.44
2022-09-25T03:03:37.471Z,67.29
2022-09-25T03:06:06.207Z,67.31
2022-09-25T03:08:37.925Z,67.43
2022-09-25T03:11:13.330Z,67.52
2022-09-25T03:13:41.210Z,67.13
2022-09-25T03:16:14.612Z,67.10
2022-09-25T03:18:41.483Z,66.98
2022-09-25T03:21:08.010Z,66.95
2022-09-25T03:23:34.570Z,66.91
2022-09-25T03:26:01.350Z,66.92
2022-09-25T03:28:27.962Z,66.88
2022-09-25T03:31:06.042Z,67.12
2022-09-25T03:33:40.242Z,67.32
2022-09-25T03:36:08.400Z,66.99
2022-09-25T03:38:34.889Z,67.35
2022-09-25T03:41:02.524Z,67.07
2022-09-25T03:43:29.147Z,67.00
2022-09-25T03:45:55.734Z,66.95
2022-09-25T03:48:22.340Z,66.96
2022-09-25T03:50:48.919Z,67.01
2022-09-25T03:53:15.464Z,67.19
2022-09-25T03:55:41.997Z,67.30
2022-09-25T03:58:08.538Z,67.42
2022-09-25T04:00:35.063Z,67.39
2022-09-25T04:03:01.613Z,67.38
2022-09-25T04:05:28.175Z,67.41
2022-09-25T04:07:54.649Z,67.45
2022-09-25T04:10:21.183Z,67.58
2022-09-25T04:12:47.738Z,67.70
2022-09-25T04:15:14.291Z,67.72
2022-09-25T04:17:40.791Z,67.67
2022-09-25T04:20:07.797Z,67.69
2022-09-25T04:22:34.260Z,67.76
2022-09-25T04:25:00.813Z,67.73
2022-09-25T04:27:27.372Z,67.68
2022-09-25T04:29:53.883Z,67.61
2022-09-25T04:32:20.460Z,67.69
2022-09-25T04:34:46.955Z,67.75
2022-09-25T04:37:13.649Z,67.85
2022-09-25T04:39:40.387Z,67.79
2022-09-25T04:42:07.179Z,67.85
2022-09-25T04:44:33.749Z,67.68
2022-09-25T04:47:00.218Z,67.82
2022-09-25T04:49:26.758Z,67.80
2022-09-25T04:51:53.230Z,67.86
2022-09-25T04:54:22.060Z,67.68
2022-09-25T04:56:49.955Z,67.70
2022-09-25T04:59:16.608Z,67.70
2022-09-25T05:01:43.667Z,67.86
2022-09-25T05:04:10.480Z,67.83
2022-09-25T05:06:37.151Z,67.90
2022-09-25T05:09:03.861Z,68.05
2022-09-25T05:11:30.374Z,68.02
2022-09-25T05:13:56.922Z,68.02
2022-09-25T05:16:23.560Z,68.08
2022-09-25T05:18:50.106Z,67.87
2022-09-25T05:21:16.715Z,67.63
2022-09-25T05:23:43.177Z,67.59
2022-09-25T05:26:09.763Z,67.57
2022-09-25T05:28:36.433Z,67.76
2022-09-25T05:31:04.292Z,67.79
2022-09-25T05:33:32.478Z,67.67
2022-09-25T05:36:03.835Z,67.23
2022-09-25T05:38:33.019Z,66.91
2022-09-25T05:41:10.200Z,66.78
2022-09-25T05:43:45.541Z,66.85
2022-09-25T05:46:12.345Z,66.88
2022-09-25T05:48:39.010Z,67.01
2022-09-25T05:51:05.922Z,67.08
2022-09-25T05:53:32.850Z,67.25
2022-09-25T05:56:03.791Z,67.64
2022-09-25T05:58:32.315Z,67.64
2022-09-25T06:01:03.867Z,67.95
2022-09-25T06:03:30.635Z,68.00
2022-09-25T06:05:58.793Z,68.20
2022-09-25T06:08:25.851Z,68.35
2022-09-25T06:10:53.808Z,68.46
2022-09-25T06:13:21.451Z,68.52
2022-09-25T06:15:48.070Z,68.53
2022-09-25T06:18:14.596Z,68.33
2022-09-25T06:20:41.171Z,68.38
2022-09-25T06:23:07.766Z,68.30
2022-09-25T06:25:34.297Z,68.32
2022-09-25T06:28:01.409Z,68.23
2022-09-25T06:30:33.728Z,68.35
2022-09-25T06:33:01.694Z,68.48
2022-09-25T06:35:29.626Z,68.62
2022-09-25T06:38:00.579Z,68.66
2022-09-25T06:40:29.295Z,68.61
2022-09-25T06:42:57.411Z,68.80
2022-09-25T06:45:24.910Z,69.04
2022-09-25T06:47:51.475Z,69.00
2022-09-25T06:50:18.012Z,69.07
2022-09-25T06:52:44.806Z,69.30
2022-09-25T06:55:11.820Z,69.42
2022-09-25T06:57:38.354Z,69.45
2022-09-25T07:00:05.794Z,69.50
2022-09-25T07:02:32.367Z,69.50
2022-09-25T07:04:58.916Z,69.64
2022-09-25T07:07:25.460Z,69.60
2022-09-25T07:09:52.383Z,69.69
2022-09-25T07:12:18.906Z,69.72
2022-09-25T07:14:45.560Z,69.61
2022-09-25T07:17:13.278Z,69.59
2022-09-25T07:19:39.830Z,69.22
2022-09-25T07:22:06.341Z,69.31
2022-09-25T07:24:32.878Z,69.12
2022-09-25T07:26:59.418Z,68.92
2022-09-25T07:29:25.909Z,68.75
2022-09-25T07:31:52.389Z,68.42
2022-09-25T07:34:18.945Z,68.41
2022-09-25T07:36:45.460Z,68.54
2022-09-25T07:39:17.556Z,68.56
2022-09-25T07:41:45.057Z,68.48
2022-09-25T07:44:27.773Z,68.62
2022-09-25T07:46:55.357Z,68.66
2022-09-25T07:49:21.831Z,68.58
2022-09-25T07:51:48.438Z,67.91
2022-09-25T07:54:14.948Z,67.49
2022-09-25T07:56:41.392Z,67.17
2022-09-25T07:59:08.011Z,67.29
2022-09-25T08:01:38.236Z,67.45
2022-09-25T08:04:07.626Z,67.01
2022-09-25T08:06:35.197Z,67.40
2022-09-25T08:09:05.592Z,67.37
2022-09-25T08:11:34.767Z,67.00
2022-09-25T08:14:01.278Z,67.15
2022-09-25T08:16:27.869Z,67.29
2022-09-25T08:18:57.193Z,66.15
2022-09-25T08:21:23.971Z,64.82
2022-09-25T08:23:52.570Z,64.19
2022-09-25T08:26:21.273Z,64.55
2022-09-25T08:28:47.932Z,64.90
2022-09-25T08:31:15.011Z,65.02
2022-09-25T08:33:49.452Z,63.69
2022-09-25T08:36:17.105Z,64.64
2022-09-25T08:38:43.668Z,64.26
2022-09-25T08:41:18.824Z,63.39
2022-09-25T08:44:06.058Z,63.71
2022-09-25T08:46:56.738Z,63.18
2022-09-25T08:49:25.931Z,64.16
2022-09-25T08:51:59.170Z,62.98
2022-09-25T08:54:29.772Z,63.56
2022-09-25T08:57:00.567Z,63.61
2022-09-25T08:59:43.660Z,62.48
2022-09-25T09:02:20.532Z,62.75
2022-09-25T09:04:56.439Z,62.46
2022-09-25T09:07:39.058Z,61.55
2022-09-25T09:10:17.277Z,62.44
2022-09-25T09:12:48.066Z,63.85
2022-09-25T09:15:28.040Z,62.61
2022-09-25T09:17:55.472Z,62.94
2022-09-25T09:20:34.337Z,61.38
2022-09-25T09:23:00.983Z,62.05
2022-09-25T09:25:34.239Z,61.65
2022-09-25T09:28:12.991Z,61.12
2022-09-25T09:31:12.909Z,61.01
2022-09-25T09:33:57.432Z,59.60
2022-09-25T09:36:47.047Z,60.24
2022-09-25T09:39:35.945Z,61.56
2022-09-25T09:42:21.358Z,60.83
2022-09-25T09:44:57.623Z,60.36
2022-09-25T09:47:33.302Z,59.79
2022-09-25T09:50:30.548Z,59.61
2022-09-25T09:53:06.007Z,59.20
2022-09-25T09:55:47.000Z,59.29
2022-09-25T09:58:29.810Z,59.12
2022-09-25T10:00:56.930Z,59.23
2022-09-25T10:03:29.875Z,58.70
2022-09-25T10:06:03.589Z,58.71
2022-09-25T10:08:30.229Z,60.02
2022-09-25T10:10:57.150Z,60.60
2022-09-25T10:13:23.590Z,60.45
2022-09-25T10:16:15.207Z,60.31
2022-09-25T10:19:00.625Z,59.83
2022-09-25T10:21:37.503Z,59.87
2022-09-25T10:24:04.160Z,60.59
2022-09-25T10:26:38.137Z,60.53
2022-09-25T10:29:08.767Z,60.60
2022-09-25T10:31:39.945Z,60.62
2022-09-25T10:34:19.802Z,60.43
2022-09-25T10:36:52.317Z,60.72
2022-09-25T10:39:43.602Z,60.68
2022-09-25T10:42:40.648Z,60.25
2022-09-25T10:45:27.167Z,60.70
2022-09-25T10:47:53.685Z,60.07
2022-09-25T10:50:23.122Z,60.21
2022-09-25T10:52:51.931Z,61.28
2022-09-25T10:55:41.166Z,61.19
2022-09-25T10:58:10.216Z,61.62
2022-09-25T11:00:55.851Z,62.04
2022-09-25T11:03:25.072Z,62.14
2022-09-25T11:06:09.861Z,61.73
2022-09-25T11:08:38.853Z,61.73
2022-09-25T11:11:07.228Z,61.76
2022-09-25T11:13:38.280Z,60.80
2022-09-25T11:16:08.139Z,60.94
2022-09-25T11:18:42.394Z,60.98
2022-09-25T11:21:30.438Z,61.57
2022-09-25T11:24:04.194Z,61.04
2022-09-25T11:26:36.221Z,61.14
2022-09-25T11:29:12.890Z,60.67
2022-09-25T11:31:50.055Z,60.36
2022-09-25T11:34:34.279Z,59.81
2022-09-25T11:37:39.513Z,60.76
2022-09-25T11:40:29.246Z,60.19
2022-09-25T11:43:04.528Z,59.03
2022-09-25T11:45:37.507Z,59.70
2022-09-25T11:48:16.545Z,60.29
2022-09-25T11:50:59.469Z,59.83
2022-09-25T11:53:47.961Z,60.26
2022-09-25T11:56:20.516Z,59.58
2022-09-25T11:59:06.689Z,59.46
2022-09-25T12:01:42.803Z,59.02
2022-09-25T12:04:35.870Z,59.56
2022-09-25T12:07:19.460Z,58.03
2022-09-25T12:10:12.901Z,58.38
2022-09-25T12:12:51.851Z,58.34
2022-09-25T12:15:29.922Z,58.26
2022-09-25T12:18:02.660Z,58.35
2022-09-25T12:20:29.130Z,59.43
2022-09-25T12:23:23.484Z,58.26
2022-09-25T12:26:12.536Z,57.94
2022-09-25T12:28:48.896Z,58.86
2022-09-25T12:31:29.475Z,56.63
2022-09-25T12:34:11.059Z,58.50
2022-09-25T12:36:50.558Z,57.99
2022-09-25T12:39:32.525Z,57.59
2022-09-25T12:42:09.632Z,58.96
2022-09-25T12:44:53.217Z,57.12
2022-09-25T12:47:38.673Z,58.09
2022-09-25T12:50:13.537Z,57.04
2022-09-25T12:52:43.585Z,55.77
2022-09-25T12:55:21.079Z,55.22
2022-09-25T12:58:11.979Z,55.03
2022-09-25T13:00:43.623Z,54.61
2022-09-25T13:03:22.295Z,54.78
2022-09-25T13:06:05.890Z,55.56
2022-09-25T13:09:02.424Z,56.07
2022-09-25T13:11:37.974Z,56.20
2022-09-25T13:14:12.580Z,56.01
2022-09-25T13:16:39.267Z,56.41
2022-09-25T13:19:24.245Z,56.03
2022-09-25T13:21:51.464Z,56.69
2022-09-25T13:24:18.459Z,57.09
2022-09-25T13:26:51.945Z,56.50
2022-09-25T13:29:34.852Z,56.46
2022-09-25T13:32:20.187Z,55.44
2022-09-25T13:34:49.847Z,54.93
2022-09-25T13:37:16.454Z,55.09
2022-09-25T13:39:49.100Z,55.43
2022-09-25T13:42:34.498Z,55.59
2022-09-25T13:45:34.386Z,55.77
2022-09-25T13:48:09.419Z,56.36
2022-09-25T13:50:37.140Z,57.00
2022-09-25T13:53:09.513Z,57.65
2022-09-25T13:55:48.619Z,58.32
2022-09-25T13:58:22.009Z,58.46
2022-09-25T14:00:50.612Z,58.35
2022-09-25T14:03:36.096Z,59.47
2022-09-25T14:06:04.628Z,58.99
2022-09-25T14:08:33.920Z,59.58
2022-09-25T14:11:05.076Z,60.29
2022-09-25T14:13:33.432Z,60.11
2022-09-25T14:16:02.205Z,60.55
2022-09-25T14:18:39.738Z,61.14
2022-09-25T14:21:06.618Z,61.06
2022-09-25T14:23:33.438Z,61.15
2022-09-25T14:26:05.268Z,61.63
2022-09-25T14:28:53.315Z,62.01
2022-09-25T14:31:31.611Z,62.65
2022-09-25T14:34:21.908Z,62.29
2022-09-25T14:37:16.131Z,62.85
2022-09-25T14:40:02.875Z,62.52
2022-09-25T14:42:38.415Z,63.16
2022-09-25T14:45:24.580Z,62.75
2022-09-25T14:47:55.928Z,62.56
2022-09-25T14:50:36.724Z,62.95
2022-09-25T14:53:07.236Z,62.82
2022-09-25T14:55:39.554Z,63.30
2022-09-25T14:58:12.703Z,63.21
2022-09-25T15:00:46.368Z,63.40
2022-09-25T15:03:15.632Z,63.44
2022-09-25T15:05:47.529Z,63.45
2022-09-25T15:08:23.450Z,63.37
2022-09-25T15:11:10.390Z,64.09
2022-09-25T15:13:36.940Z,64.14
2022-09-25T15:16:05.078Z,64.59
2022-09-25T15:18:31.686Z,64.58
2022-09-25T15:20:58.651Z,64.54
2022-09-25T15:23:25.365Z,64.43
2022-09-25T15:25:55.035Z,63.89
2022-09-25T15:28:26.611Z,63.25
2022-09-25T15:31:01.652Z,62.87
2022-09-25T15:33:31.226Z,63.01
2022-09-25T15:36:02.990Z,62.66
2022-09-25T15:38:35.357Z,62.71
2022-09-25T15:41:03.251Z,62.46
2022-09-25T15:43:29.878Z,62.69
2022-09-25T15:45:58.138Z,63.01
2022-09-25T15:48:31.438Z,63.36
2022-09-25T15:51:00.482Z,62.98
2022-09-25T15:53:34.950Z,62.89
2022-09-25T15:56:06.529Z,63.42
2022-09-25T15:58:42.527Z,63.63
2022-09-25T16:01:12.470Z,63.58
2022-09-25T16:03:44.755Z,63.56
2022-09-25T16:06:16.341Z,64.44
2022-09-25T16:08:43.422Z,63.76
2022-09-25T16:11:23.693Z,64.94
2022-09-25T16:14:12.418Z,64.42
2022-09-25T16:16:46.523Z,64.66
2022-09-25T16:19:24.996Z,65.15
2022-09-25T16:21:52.506Z,64.58
2022-09-25T16:24:21.923Z,64.69
2022-09-25T16:26:55.087Z,65.49
2022-09-25T16:29:25.208Z,65.18
2022-09-25T16:31:52.701Z,65.12
2022-09-25T16:34:28.523Z,65.75
2022-09-25T16:36:57.878Z,65.49
2022-09-25T16:39:26.531Z,65.28
2022-09-25T16:41:53.395Z,65.36
2022-09-25T16:44:31.857Z,65.99
2022-09-25T16:46:58.293Z,65.48
2022-09-25T16:49:24.983Z,65.43
2022-09-25T16:51:54.039Z,65.67
2022-09-25T16:54:22.221Z,65.51
2022-09-25T16:56:49.125Z,66.17
2022-09-25T16:59:21.101Z,65.58
2022-09-25T17:01:50.107Z,65.14
2022-09-25T17:04:22.018Z,65.02
2022-09-25T17:06:48.527Z,64.91
2022-09-25T17:09:16.925Z,65.04
2022-09-25T17:11:46.269Z,65.05
2022-09-25T17:14:23.255Z,65.68
2022-09-25T17:16:53.888Z,64.90
2022-09-25T17:19:21.251Z,65.03
2022-09-25T17:21:49.836Z,64.92
2022-09-25T17:24:16.879Z,65.22
2022-09-25T17:26:44.196Z,65.10
2022-09-25T17:29:11.057Z,65.25
2022-09-25T17:31:37.741Z,65.30
2022-09-25T17:34:17.000Z,65.97
2022-09-25T17:36:43.985Z,65.24
2022-09-25T17:39:10.622Z,65.58
2022-09-25T17:41:37.994Z,65.66
2022-09-25T17:44:05.329Z,65.59
2022-09-25T17:46:32.102Z,65.88
2022-09-25T17:48:58.642Z,65.77
2022-09-25T17:51:27.710Z,65.89
2022-09-25T17:53:54.438Z,66.12
2022-09-25T17:56:22.193Z,65.97
2022-09-25T17:58:48.769Z,66.15
2022-09-25T18:01:18.157Z,66.29
2022-09-25T18:03:44.703Z,66.09
2022-09-25T18:06:11.283Z,66.28
2022-09-25T18:08:37.793Z,66.27
2022-09-25T18:11:04.519Z,66.00
2022-09-25T18:13:31.024Z,66.07
2022-09-25T18:15:59.880Z,66.20
2022-09-25T18:18:28.835Z,66.04
2022-09-25T18:20:55.400Z,65.72
2022-09-25T18:23:21.916Z,65.75
2022-09-25T18:25:48.480Z,65.43
2022-09-25T18:28:17.021Z,65.55
2022-09-25T18:30:43.897Z,65.70
2022-09-25T18:33:10.554Z,65.58
2022-09-25T18:35:37.395Z,65.76
2022-09-25T18:38:03.938Z,65.86
2022-09-25T18:40:30.627Z,65.84
2022-09-25T18:42:57.137Z,65.85
2022-09-25T18:45:23.632Z,65.98
2022-09-25T18:47:50.206Z,66.26
2022-09-25T18:50:20.624Z,66.30
2022-09-25T18:52:47.713Z,66.28
2022-09-25T18:55:14.225Z,66.48
2022-09-25T18:57:40.957Z,66.31
2022-09-25T19:00:08.019Z,66.42
2022-09-25T19:02:34.620Z,66.53
2022-09-25T19:05:01.237Z,66.67
2022-09-25T19:07:28.995Z,66.89
2022-09-25T19:09:56.163Z,66.89
2022-09-25T19:12:22.699Z,66.90
2022-09-25T19:14:49.255Z,67.12
2022-09-25T19:17:16.816Z,67.09
2022-09-25T19:19:43.386Z,67.23
2022-09-25T19:22:18.072Z,67.71
2022-09-25T19:24:48.579Z,67.53
2022-09-25T19:27:16.547Z,67.23
2022-09-25T19:29:45.064Z,67.59
2022-09-25T19:32:14.030Z,67.51
2022-09-25T19:34:41.264Z,67.41
2022-09-25T19:37:07.896Z,67.33
2022-09-25T19:39:34.441Z,67.11
2022-09-25T19:42:01.009Z,67.36
2022-09-25T19:44:27.489Z,67.05
2022-09-25T19:46:54.029Z,67.10
2022-09-25T19:49:20.964Z,67.12
2022-09-25T19:51:47.834Z,67.18
2022-09-25T19:54:15.295Z,67.18
2022-09-25T19:56:42.379Z,67.19
2022-09-25T19:59:15.652Z,67.61
2022-09-25T20:01:43.105Z,67.41
2022-09-25T20:04:15.722Z,67.52
2022-09-25T20:06:45.665Z,67.45
2022-09-25T20:09:12.196Z,67.57
2022-09-25T20:11:39.861Z,67.57
2022-09-25T20:14:07.182Z,67.61
2022-09-25T20:16:33.761Z,67.46
2022-09-25T20:19:02.454Z,67.48
2022-09-25T20:21:31.492Z,67.49
2022-09-25T20:24:00.576Z,67.31
2022-09-25T20:26:31.706Z,67.48
2022-09-25T20:29:00.866Z,67.30
2022-09-25T20:31:29.727Z,67.29
2022-09-25T20:33:56.482Z,67.46
2022-09-25T20:36:23.438Z,67.24
2022-09-25T20:38:52.089Z,67.31
2022-09-25T20:41:22.817Z,67.27
2022-09-25T20:43:51.638Z,67.33
2022-09-25T20:46:19.356Z,67.33
2022-09-25T20:48:48.464Z,67.26
2022-09-25T20:51:20.987Z,67.32
2022-09-25T20:53:52.509Z,67.71
2022-09-25T20:56:19.597Z,67.33
2022-09-25T20:58:50.644Z,67.62
2022-09-25T21:01:22.189Z,67.81
2022-09-25T21:03:49.886Z,67.97
2022-09-25T21:06:20.497Z,67.96
2022-09-25T21:08:50.889Z,67.88
2022-09-25T21:11:17.495Z,67.96
2022-09-25T21:13:44.154Z,67.79
2022-09-25T21:16:11.676Z,67.87
2022-09-25T21:18:39.205Z,67.90
2022-09-25T21:21:08.570Z,68.14
2022-09-25T21:23:35.937Z,68.10
2022-09-25T21:26:05.010Z,68.29
2022-09-25T21:28:32.842Z,68.40
2022-09-25T21:31:07.026Z,69.18
2022-09-25T21:33:34.030Z,68.26
2022-09-25T21:36:01.024Z,68.38
2022-09-25T21:38:27.754Z,68.38
2022-09-25T21:40:59.271Z,68.98
2022-09-25T21:43:26.606Z,68.49
2022-09-25T21:45:53.264Z,68.61
2022-09-25T21:48:19.769Z,68.57
2022-09-25T21:50:58.096Z,69.26
2022-09-25T21:53:25.899Z,68.72
2022-09-25T21:56:03.228Z,69.93
2022-09-25T21:58:30.417Z,68.95
2022-09-25T22:01:10.981Z,69.55
2022-09-25T22:03:40.382Z,69.01
2022-09-25T22:06:09.993Z,69.09
2022-09-25T22:08:38.917Z,68.88
2022-09-25T22:11:06.902Z,68.51
2022-09-25T22:13:35.997Z,69.01
2022-09-25T22:16:08.579Z,68.53
2022-09-25T22:18:49.874Z,68.48
2022-09-25T22:21:19.431Z,68.43
2022-09-25T22:23:46.345Z,68.33
2022-09-25T22:26:14.513Z,68.41
2022-09-25T22:28:41.504Z,69.18
2022-09-25T22:31:19.978Z,68.76
2022-09-25T22:33:47.955Z,68.57
2022-09-25T22:36:14.959Z,68.56
2022-09-25T22:38:41.793Z,68.49
2022-09-25T22:41:11.510Z,68.59
2022-09-25T22:43:38.766Z,68.57
2022-09-25T22:46:06.483Z,68.34
2022-09-25T22:48:34.039Z,68.66
2022-09-25T22:51:02.023Z,68.74
2022-09-25T22:53:29.362Z,69.14
2022-09-25T22:55:56.390Z,68.63
2022-09-25T22:58:22.999Z,68.48
2022-09-25T23:00:52.077Z,68.64
2022-09-25T23:03:19.234Z,68.56
2022-09-25T23:05:45.907Z,68.75
2022-09-25T23:08:12.539Z,68.62
2022-09-25T23:11:05.613Z,68.74
2022-09-25T23:13:26.064Z,68.70
2022-09-25T23:15:52.608Z,68.73
2022-09-25T23:18:19.083Z,68.74
2022-09-25T23:20:45.652Z,68.58
2022-09-25T23:23:12.100Z,68.61
2022-09-25T23:25:38.640Z,68.59
2022-09-25T23:28:05.149Z,68.42
2022-09-25T23:30:31.752Z,68.37
2022-09-25T23:32:58.325Z,68.10
2022-09-25T23:35:24.889Z,68.12
2022-09-25T23:37:52.230Z,67.93
2022-09-25T23:40:18.802Z,68.06
2022-09-25T23:42:45.418Z,68.19
2022-09-25T23:45:11.893Z,68.25
2022-09-25T23:47:38.408Z,68.53
2022-09-25T23:50:05.460Z,68.35
2022-09-25T23:52:31.944Z,68.25
2022-09-25T23:54:58.483Z,68.23
2022-09-25T23:57:24.965Z,68.35
2022-09-25T23:59:51.588Z,68.35
